Bloomington, California
Current Conditions -  °F | °C
As of 10:53 AM on Monday 22 Dec 2014 (Local Time) from KRAL Reporting Station
Clear Clear  
Wind Chill: 67°   Ceiling: Unl
Heat Index: 67°   Visibility: 10mi
Dew Point: 47°   Wind: 3mph
Humidity: 49%   Direction: 110°ESE
Pressure: 30.04"   Gusts: NA
Location:  34.07°N, 117.39°W
Report Text: KRAL 221853Z 11003KT 10SM CLR 19/08 A3004 RMK AO2 SLP160 T01940083
Loading
Personal Weather Stations






























Interactive Weather Map New forecast layout! Learn more

10-Day Weather Forecast

Advertisements
Track Severe Weather on mobile